Time;durP1;ratioP1;P1;durP2;ratioP2;P2;SDS_P1;SDS_P2;PMS_P1;PMS_P2;Temp;Humidity;BMP_temperature;BMP_pressure;BME280_temperature;BME280_humidity;BME280_pressure;Samples;Min_cycle;Max_cycle;Signal;HPM_P1;HPM_P2
2022/03/26 00:11:13;;;;;;;2.37;1.00;;;15.80;99.90;;;;;;6292222;22;20213;-96
2022/03/26 00:25:52;;;;;;;1.40;1.10;;;15.70;99.90;;;;;;6207664;22;20216;-94
2022/03/26 00:32:08;;;;;;;1.77;1.10;;;15.70;99.90;;;;;;6210973;23;20191;-93
2022/03/26 00:38:48;;;;;;;1.93;0.90;;;15.00;99.90;;;;;;6199589;22;20204;-93
2022/03/26 00:44:52;;;;;;;3.33;1.07;;;14.80;99.90;;;;;;6205343;23;20181;-93
2022/03/26 00:47:37;;;;;;;1.80;0.90;;;14.90;99.90;;;;;;6203806;23;20165;-94
2022/03/26 00:50:16;;;;;;;1.93;0.90;;;14.90;99.90;;;;;;6205575;23;20176;-92
2022/03/26 01:39:23;;;;;;;2.23;1.10;;;14.50;99.90;;;;;;6203010;22;20205;-92
2022/03/26 01:41:57;;;;;;;3.50;1.00;;;14.50;99.90;;;;;;6211551;23;20196;-92
2022/03/26 01:47:16;;;;;;;3.70;1.27;;;14.40;99.90;;;;;;6197623;23;20176;-91
2022/03/26 01:50:01;;;;;;;4.53;1.13;;;14.30;99.90;;;;;;6181283;23;20173;-92
2022/03/26 01:52:34;;;;;;;3.00;1.20;;;14.10;99.90;;;;;;6206445;23;20177;-92
2022/03/26 01:58:24;;;;;;;2.80;1.20;;;13.80;99.90;;;;;;6204280;23;20177;-93
2022/03/26 02:00:57;;;;;;;2.27;1.00;;;13.70;99.90;;;;;;6183703;23;20232;-94
2022/03/26 02:22:30;;;;;;;2.73;1.17;;;12.40;99.90;;;;;;6222200;22;20202;-91
2022/03/26 02:27:43;;;;;;;4.03;1.00;;;12.10;99.90;;;;;;6208963;22;20235;-91
2022/03/26 02:33:24;;;;;;;2.80;1.10;;;11.80;99.90;;;;;;6211821;23;20169;-92
2022/03/26 03:25:38;;;;;;;3.70;1.20;;;10.00;99.90;;;;;;6300218;22;20189;-92
2022/03/26 03:30:49;;;;;;;4.20;2.20;;;9.80;99.90;;;;;;6212299;22;20439;-90
2022/03/26 03:38:40;;;;;;;6.50;1.43;;;9.70;99.90;;;;;;6179715;23;20686;-91
2022/03/26 03:41:23;;;;;;;3.27;1.70;;;9.60;99.90;;;;;;6178461;23;20177;-92
2022/03/26 03:43:55;;;;;;;3.90;2.57;;;9.50;99.90;;;;;;6179172;23;20178;-92
2022/03/26 03:46:34;;;;;;;2.93;2.63;;;9.50;99.90;;;;;;6152056;23;20201;-92
2022/03/26 03:49:19;;;;;;;2.70;2.50;;;9.40;99.90;;;;;;6155919;23;20233;-92
2022/03/26 03:52:00;;;;;;;2.90;1.83;;;9.40;99.90;;;;;;6177667;23;20256;-92
2022/03/26 03:54:33;;;;;;;2.83;1.97;;;9.30;99.90;;;;;;6180340;23;20197;-92
2022/03/26 03:59:43;;;;;;;7.37;4.87;;;9.20;99.90;;;;;;6245259;22;20231;-91
2022/03/26 04:02:18;;;;;;;6.27;3.80;;;9.20;99.90;;;;;;6205476;23;20195;-92
2022/03/26 04:04:58;;;;;;;2.40;2.20;;;9.20;99.90;;;;;;6207696;23;20162;-92
2022/03/26 04:07:31;;;;;;;4.07;1.80;;;9.20;99.90;;;;;;6206355;23;20230;-92
2022/03/26 04:10:09;;;;;;;3.57;1.40;;;9.10;99.90;;;;;;6205626;23;20208;-92
2022/03/26 04:15:30;;;;;;;14.23;9.87;;;9.10;99.90;;;;;;6206832;23;20165;-93
2022/03/26 04:18:03;;;;;;;18.93;14.50;;;9.00;99.90;;;;;;6210063;23;20164;-92
2022/03/26 04:20:36;;;;;;;11.07;8.77;;;8.90;99.90;;;;;;6185713;23;20169;-92
2022/03/26 04:23:08;;;;;;;11.27;9.10;;;8.90;99.90;;;;;;6211503;23;20193;-92
2022/03/26 04:25:45;;;;;;;6.90;6.07;;;8.90;99.90;;;;;;6183734;23;20201;-92
2022/03/26 04:31:21;;;;;;;10.60;8.60;;;8.90;99.90;;;;;;6197563;23;20697;-92
2022/03/26 04:34:01;;;;;;;11.47;6.70;;;8.90;99.90;;;;;;6182315;23;20183;-88
2022/03/26 04:36:46;;;;;;;5.90;4.80;;;8.80;99.90;;;;;;6178481;23;20173;-92
2022/03/26 04:39:31;;;;;;;9.20;5.73;;;8.80;99.90;;;;;;6203052;23;20220;-91
2022/03/26 04:42:05;;;;;;;8.50;5.60;;;8.70;99.90;;;;;;6199276;23;20231;-91
2022/03/26 04:44:36;;;;;;;7.30;5.23;;;8.60;99.90;;;;;;6199533;23;20179;-92
2022/03/26 04:47:14;;;;;;;7.43;5.17;;;8.60;99.90;;;;;;6201128;23;20181;-92
2022/03/26 04:52:59;;;;;;;4.90;3.53;;;8.50;99.90;;;;;;6205560;23;20179;-91
2022/03/26 04:55:39;;;;;;;5.03;3.10;;;8.60;99.90;;;;;;6175616;23;20235;-92
2022/03/26 04:58:20;;;;;;;3.77;3.20;;;8.60;99.90;;;;;;6205113;23;20187;-92
2022/03/26 05:01:01;;;;;;;4.03;2.40;;;8.60;99.90;;;;;;6207073;23;20166;-92
2022/03/26 05:03:39;;;;;;;7.83;2.20;;;8.60;99.90;;;;;;6209966;23;20256;-90
2022/03/26 05:15:05;;;;;;;7.03;3.40;;;8.50;99.90;;;;;;6171644;23;20172;-92
2022/03/26 05:17:37;;;;;;;5.57;4.00;;;8.40;99.90;;;;;;6195000;23;20177;-93
2022/03/26 05:20:14;;;;;;;7.13;5.10;;;8.40;99.90;;;;;;6195343;23;20557;-90
2022/03/26 05:22:47;;;;;;;6.87;4.40;;;8.40;99.90;;;;;;6192859;23;20204;-92
2022/03/26 05:25:20;;;;;;;2.70;2.13;;;8.40;99.90;;;;;;6191159;23;20578;-92
2022/03/26 05:27:52;;;;;;;3.73;1.50;;;8.40;99.90;;;;;;6165431;23;20254;-91
2022/03/26 05:30:24;;;;;;;4.03;3.60;;;8.40;99.90;;;;;;6191591;23;20613;-92
2022/03/26 05:32:56;;;;;;;5.70;3.37;;;8.40;99.90;;;;;;6192166;23;20177;-92
2022/03/26 05:35:32;;;;;;;7.63;2.77;;;8.50;99.90;;;;;;6190923;23;20265;-93
2022/03/26 05:40:52;;;;;;;7.00;3.27;;;8.40;99.90;;;;;;6191325;23;20211;-92
2022/03/26 05:43:24;;;;;;;9.77;5.60;;;8.50;99.90;;;;;;6198256;23;20204;-94
2022/03/26 05:48:41;;;;;;;8.97;5.90;;;8.50;99.90;;;;;;6207156;23;20185;-91
2022/03/26 05:51:17;;;;;;;9.83;5.10;;;8.60;99.90;;;;;;6211624;23;20205;-92
2022/03/26 05:53:52;;;;;;;9.40;5.87;;;8.60;99.90;;;;;;6210894;23;20172;-91
2022/03/26 05:56:23;;;;;;;8.63;4.47;;;8.60;99.90;;;;;;6210840;23;20172;-92
2022/03/26 05:58:55;;;;;;;7.57;3.93;;;8.70;99.90;;;;;;6193475;23;20519;-92
2022/03/26 06:01:26;;;;;;;7.03;5.20;;;8.70;99.90;;;;;;6196363;23;20173;-92
2022/03/26 06:03:58;;;;;;;7.63;5.90;;;8.70;99.90;;;;;;6194850;23;20204;-91
2022/03/26 06:06:33;;;;;;;6.53;4.27;;;8.70;99.90;;;;;;6169204;23;20183;-92
2022/03/26 06:09:05;;;;;;;6.10;3.03;;;8.70;99.90;;;;;;6191833;23;20181;-93
2022/03/26 06:11:37;;;;;;;6.13;3.33;;;8.70;99.90;;;;;;6191244;23;20208;-92
2022/03/26 06:14:09;;;;;;;5.27;3.20;;;8.70;99.90;;;;;;6193610;23;20184;-92
2022/03/26 06:16:42;;;;;;;6.40;4.63;;;8.70;99.90;;;;;;6192436;23;20177;-93
2022/03/26 06:19:15;;;;;;;4.07;2.57;;;8.80;99.90;;;;;;6167345;23;20197;-92
2022/03/26 06:21:51;;;;;;;4.13;2.13;;;8.80;99.90;;;;;;6192224;23;20173;-93
2022/03/26 06:24:23;;;;;;;5.50;3.33;;;8.70;99.90;;;;;;6192654;23;20275;-92
2022/03/26 06:26:54;;;;;;;7.00;4.30;;;8.60;99.90;;;;;;6192025;23;20619;-92
2022/03/26 06:29:26;;;;;;;6.80;4.87;;;8.60;99.90;;;;;;6192362;23;20177;-91
2022/03/26 06:31:58;;;;;;;6.40;2.83;;;8.60;99.90;;;;;;6205715;23;20185;-91
2022/03/26 06:34:30;;;;;;;5.17;2.80;;;8.60;99.90;;;;;;6206443;23;20168;-91
2022/03/26 06:37:04;;;;;;;5.60;3.90;;;8.60;99.90;;;;;;6204711;23;20184;-91
2022/03/26 06:39:34;;;;;;;5.20;3.10;;;8.80;99.90;;;;;;6195227;23;20632;-92
2022/03/26 06:42:07;;;;;;;4.17;3.07;;;8.70;99.90;;;;;;6194262;23;20201;-92
2022/03/26 06:44:38;;;;;;;5.20;2.90;;;8.70;99.90;;;;;;6193415;23;20229;-92
2022/03/26 06:47:10;;;;;;;3.57;2.40;;;8.70;99.90;;;;;;6194483;23;20181;-92
2022/03/26 06:49:42;;;;;;;6.70;2.70;;;8.70;99.90;;;;;;6169062;23;20232;-92
2022/03/26 06:52:16;;;;;;;4.53;2.60;;;8.70;99.90;;;;;;6194218;23;20180;-92
2022/03/26 06:54:48;;;;;;;3.93;2.70;;;8.70;99.90;;;;;;6195956;23;20204;-91
2022/03/26 06:57:20;;;;;;;5.80;2.93;;;8.60;99.90;;;;;;6169074;23;20177;-91
2022/03/26 06:59:52;;;;;;;5.03;2.77;;;8.70;99.90;;;;;;6200136;23;20189;-92
2022/03/26 07:02:24;;;;;;;5.33;2.50;;;8.60;99.90;;;;;;6202255;23;20206;-92
2022/03/26 07:04:56;;;;;;;3.83;2.00;;;8.60;99.90;;;;;;6196501;23;20252;-89
2022/03/26 07:07:29;;;;;;;5.93;1.97;;;8.60;99.90;;;;;;6208519;23;20173;-92
2022/03/26 07:10:02;;;;;;;3.50;1.93;;;8.60;99.90;;;;;;6211494;23;20204;-91
2022/03/26 07:12:34;;;;;;;2.77;2.00;;;8.70;99.90;;;;;;6210483;23;20177;-91
2022/03/26 07:15:07;;;;;;;4.20;2.00;;;8.70;99.90;;;;;;6197980;23;20165;-91
2022/03/26 07:17:42;;;;;;;4.27;2.20;;;8.70;99.90;;;;;;6194805;23;20176;-93
2022/03/26 07:20:14;;;;;;;4.23;1.90;;;8.70;99.90;;;;;;6193676;23;20201;-93
2022/03/26 07:22:47;;;;;;;3.00;2.03;;;8.70;99.90;;;;;;6192408;23;20178;-92
2022/03/26 07:25:20;;;;;;;5.50;2.20;;;8.70;99.90;;;;;;6191367;23;20188;-93
2022/03/26 07:27:51;;;;;;;6.83;2.53;;;8.70;99.90;;;;;;6190667;23;20192;-92
2022/03/26 07:30:23;;;;;;;3.40;2.17;;;8.70;99.90;;;;;;6191087;23;20177;-92
2022/03/26 07:32:55;;;;;;;5.00;2.43;;;8.70;99.90;;;;;;6191653;23;20173;-91
2022/03/26 07:35:26;;;;;;;4.23;2.50;;;8.70;99.90;;;;;;6191598;23;20168;-91
2022/03/26 07:38:00;;;;;;;5.07;2.30;;;8.70;99.90;;;;;;6190945;23;20184;-91
2022/03/26 07:40:34;;;;;;;2.37;1.80;;;8.70;99.90;;;;;;6191710;23;20184;-91
2022/03/26 07:43:05;;;;;;;3.47;1.70;;;8.70;99.90;;;;;;6190690;23;20644;-87
2022/03/26 07:45:37;;;;;;;5.60;2.10;;;8.70;99.90;;;;;;6192386;23;20231;-91
2022/03/26 07:48:11;;;;;;;5.07;2.30;;;8.70;99.90;;;;;;6190842;23;20189;-92
2022/03/26 07:50:43;;;;;;;2.40;1.83;;;8.70;99.90;;;;;;6167114;23;20197;-91
2022/03/26 07:53:17;;;;;;;3.90;1.90;;;8.70;99.90;;;;;;6171354;23;20169;-91
2022/03/26 07:55:57;;;;;;;4.23;2.10;;;8.80;99.90;;;;;;6196575;23;20177;-91
2022/03/26 07:58:31;;;;;;;5.77;2.07;;;8.80;99.90;;;;;;6201826;23;20181;-91
2022/03/26 08:01:02;;;;;;;7.73;2.60;;;8.70;99.90;;;;;;6196603;23;20182;-92
2022/03/26 08:03:34;;;;;;;4.43;1.97;;;8.70;99.90;;;;;;6193969;23;20572;-92
2022/03/26 08:06:06;;;;;;;2.90;1.67;;;8.70;99.90;;;;;;6191650;23;20173;-92
2022/03/26 08:08:40;;;;;;;4.10;1.93;;;8.80;99.90;;;;;;6192610;23;20192;-92
2022/03/26 08:11:12;;;;;;;4.67;1.70;;;8.80;99.90;;;;;;6192743;23;20187;-92
2022/03/26 08:13:43;;;;;;;3.17;1.80;;;8.70;99.90;;;;;;6191045;23;20262;-93
2022/03/26 08:16:14;;;;;;;2.37;1.83;;;8.70;99.90;;;;;;6190201;23;20203;-93
2022/03/26 08:18:45;;;;;;;2.63;1.70;;;8.70;99.90;;;;;;6190568;23;20188;-92
2022/03/26 08:21:17;;;;;;;3.20;1.70;;;8.70;99.90;;;;;;6165201;23;20193;-92
2022/03/26 08:23:53;;;;;;;4.10;1.80;;;8.70;99.90;;;;;;6191567;23;20197;-92
2022/03/26 08:26:26;;;;;;;3.87;1.80;;;8.70;99.90;;;;;;6193530;23;20169;-92
2022/03/26 08:28:59;;;;;;;3.07;1.53;;;8.70;99.90;;;;;;6199123;23;20263;-92
2022/03/26 08:31:32;;;;;;;2.97;1.73;;;8.70;99.90;;;;;;6195610;23;20208;-92
2022/03/26 08:34:03;;;;;;;3.40;2.00;;;8.70;99.90;;;;;;6195623;23;20177;-91
2022/03/26 08:36:35;;;;;;;4.60;2.20;;;8.70;99.90;;;;;;6192290;23;20173;-91
2022/03/26 08:39:23;;;;;;;5.40;2.10;;;8.70;99.90;;;;;;6190873;23;20199;-91
2022/03/26 08:41:56;;;;;;;5.70;1.90;;;8.70;99.90;;;;;;6166454;23;20550;-92
2022/03/26 08:44:27;;;;;;;3.63;2.17;;;8.60;99.90;;;;;;6165397;23;20197;-92
2022/03/26 08:47:02;;;;;;;1.93;1.50;;;8.60;99.90;;;;;;6191670;23;20192;-93
2022/03/26 08:49:33;;;;;;;5.17;1.80;;;8.60;99.90;;;;;;6203303;23;20195;-92
2022/03/26 08:52:06;;;;;;;2.83;1.90;;;8.70;99.90;;;;;;6208967;23;20184;-92
2022/03/26 08:54:43;;;;;;;3.23;1.80;;;8.70;99.90;;;;;;6179661;23;20196;-92
2022/03/26 08:57:15;;;;;;;3.73;1.90;;;8.70;99.90;;;;;;6164458;23;20169;-91
2022/03/26 08:59:46;;;;;;;1.87;1.53;;;8.70;99.90;;;;;;6191014;23;20177;-91
2022/03/26 09:02:18;;;;;;;3.37;1.70;;;8.70;99.90;;;;;;6191868;23;20247;-92
2022/03/26 09:04:51;;;;;;;3.63;1.90;;;8.70;99.90;;;;;;6191689;23;20201;-91
2022/03/26 09:07:22;;;;;;;6.47;1.87;;;8.70;99.90;;;;;;6190876;23;20181;-92
2022/03/26 09:09:58;;;;;;;3.50;1.80;;;8.80;99.90;;;;;;6190959;23;20192;-88
2022/03/26 09:12:30;;;;;;;3.63;2.03;;;8.70;99.90;;;;;;6195488;23;20418;-91
2022/03/26 09:15:02;;;;;;;2.77;2.00;;;8.80;99.90;;;;;;6166620;23;20209;-90
2022/03/26 09:17:34;;;;;;;4.00;2.03;;;8.80;99.90;;;;;;6190267;23;20256;-92
2022/03/26 09:20:06;;;;;;;4.10;2.63;;;8.80;99.90;;;;;;6191314;23;20616;-91
2022/03/26 09:22:40;;;;;;;2.97;2.10;;;8.80;99.90;;;;;;6190453;23;20200;-90
2022/03/26 09:25:18;;;;;;;4.20;2.13;;;8.80;99.90;;;;;;6190174;23;20208;-93
2022/03/26 09:27:51;;;;;;;2.80;1.83;;;8.80;99.90;;;;;;6164413;23;20201;-92
2022/03/26 09:30:23;;;;;;;4.03;2.10;;;8.70;99.90;;;;;;6190756;23;20181;-92
2022/03/26 09:32:55;;;;;;;4.30;1.73;;;8.70;99.90;;;;;;6190381;23;20189;-92
2022/03/26 09:35:26;;;;;;;3.67;2.10;;;8.70;99.90;;;;;;6190777;23;20683;-91
2022/03/26 09:37:57;;;;;;;3.93;2.23;;;8.70;99.90;;;;;;6190655;23;20177;-92
2022/03/26 09:40:33;;;;;;;3.10;1.93;;;8.70;99.90;;;;;;6190492;23;20200;-91
2022/03/26 09:43:05;;;;;;;4.13;2.10;;;8.70;99.90;;;;;;6190213;23;20165;-92
2022/03/26 09:45:36;;;;;;;3.83;1.90;;;8.70;99.90;;;;;;6190170;23;20314;-90
2022/03/26 09:48:09;;;;;;;3.33;1.77;;;8.70;99.90;;;;;;6193289;23;20176;-90
2022/03/26 09:50:44;;;;;;;5.53;2.03;;;8.70;99.90;;;;;;6192576;23;20223;-91
2022/03/26 09:53:15;;;;;;;3.13;1.97;;;8.70;99.90;;;;;;6192815;23;20183;-93
2022/03/26 09:55:51;;;;;;;3.30;2.00;;;8.70;99.90;;;;;;6167310;23;20208;-91
2022/03/26 09:58:23;;;;;;;2.60;2.00;;;8.70;99.90;;;;;;6192246;23;20191;-92
2022/03/26 10:00:55;;;;;;;6.10;2.23;;;8.70;99.90;;;;;;6196493;23;20165;-92
2022/03/26 10:03:26;;;;;;;2.63;1.93;;;8.70;99.90;;;;;;6195285;23;20173;-91
2022/03/26 10:06:04;;;;;;;3.67;2.13;;;8.70;99.90;;;;;;6192932;23;20197;-91
2022/03/26 10:08:39;;;;;;;2.23;1.67;;;8.70;99.90;;;;;;6193092;23;20176;-92
2022/03/26 10:11:22;;;;;;;3.83;1.73;;;8.70;99.90;;;;;;6193433;23;20184;-91
2022/03/26 10:13:55;;;;;;;3.73;2.03;;;8.70;99.90;;;;;;6193041;23;20166;-92
2022/03/26 10:16:26;;;;;;;4.47;1.87;;;8.80;99.90;;;;;;6192800;23;20184;-91
2022/03/26 10:19:03;;;;;;;2.57;2.00;;;8.70;99.90;;;;;;6196523;23;20177;-91
2022/03/26 10:21:34;;;;;;;3.67;2.00;;;8.70;99.90;;;;;;6192998;23;20196;-91
2022/03/26 10:24:08;;;;;;;4.93;2.23;;;8.60;99.90;;;;;;6193881;23;20177;-91
2022/03/26 10:26:43;;;;;;;3.43;2.10;;;8.70;99.90;;;;;;6168541;23;20196;-92
2022/03/26 10:29:14;;;;;;;2.30;1.93;;;8.60;99.90;;;;;;6202117;23;20195;-91
2022/03/26 10:34:34;;;;;;;4.90;1.80;;;8.60;99.90;;;;;;6152902;23;20192;-91
2022/03/26 10:37:06;;;;;;;4.07;1.97;;;8.60;99.90;;;;;;6211964;23;20157;-94
2022/03/26 10:39:37;;;;;;;5.10;1.87;;;8.60;99.90;;;;;;6212482;23;20223;-91
2022/03/26 10:42:10;;;;;;;2.87;1.67;;;8.60;99.90;;;;;;6212850;23;20180;-91
2022/03/26 10:44:41;;;;;;;4.27;1.87;;;8.60;99.90;;;;;;6212633;23;20181;-92
2022/03/26 10:47:17;;;;;;;3.07;2.07;;;8.90;99.90;;;;;;6212168;23;20165;-92
2022/03/26 10:49:49;;;;;;;3.10;1.70;;;8.80;99.90;;;;;;6209830;23;20173;-91
2022/03/26 10:52:21;;;;;;;2.23;1.70;;;8.80;99.90;;;;;;6212195;23;20160;-92
2022/03/26 10:54:52;;;;;;;4.80;1.97;;;8.70;99.90;;;;;;6212581;23;20295;-91
2022/03/26 10:57:26;;;;;;;2.47;1.57;;;8.60;99.90;;;;;;6211624;23;20173;-92
2022/03/26 10:59:57;;;;;;;4.27;1.73;;;8.60;99.90;;;;;;6186124;23;20189;-90
2022/03/26 11:02:29;;;;;;;3.00;1.50;;;8.60;99.90;;;;;;6207953;23;20177;-91
2022/03/26 11:05:01;;;;;;;3.90;1.93;;;8.60;99.90;;;;;;6209280;23;20185;-91
2022/03/26 11:07:37;;;;;;;2.43;1.50;;;8.60;99.90;;;;;;6204641;23;20187;-92
2022/03/26 11:10:10;;;;;;;5.53;1.90;;;8.60;99.90;;;;;;6207818;23;20173;-92
2022/03/26 11:12:47;;;;;;;4.27;1.70;;;8.50;99.90;;;;;;6207957;23;20249;-92
2022/03/26 11:15:22;;;;;;;2.63;1.80;;;8.50;99.90;;;;;;6210409;23;20169;-91
2022/03/26 11:18:32;;;;;;;2.70;1.90;;;8.50;99.90;;;;;;6208798;23;20181;-92
2022/03/26 11:21:33;;;;;;;3.40;2.30;;;8.50;99.90;;;;;;6179885;23;20165;-91
2022/03/26 11:24:30;;;;;;;3.37;1.80;;;8.60;99.90;;;;;;6212250;23;20179;-92
2022/03/26 11:27:19;;;;;;;4.60;1.73;;;8.60;99.90;;;;;;6212169;23;20192;-91
2022/03/26 11:30:15;;;;;;;5.90;1.70;;;8.60;99.90;;;;;;6212165;23;20176;-91
2022/03/26 11:32:51;;;;;;;2.67;1.80;;;8.50;99.90;;;;;;6203268;23;20193;-92
2022/03/26 11:35:22;;;;;;;4.13;1.60;;;8.60;99.90;;;;;;6207372;23;20181;-90
2022/03/26 11:37:55;;;;;;;3.27;1.77;;;8.60;99.90;;;;;;6201288;23;20177;-92
2022/03/26 11:40:44;;;;;;;3.40;1.73;;;8.60;99.90;;;;;;6209818;23;20213;-92
2022/03/26 11:43:19;;;;;;;2.30;1.90;;;8.50;99.90;;;;;;6200358;23;20177;-91
2022/03/26 11:51:53;;;;;;;5.97;1.60;;;8.50;99.90;;;;;;6201052;23;20180;-91
2022/03/26 11:54:26;;;;;;;6.80;2.00;;;8.60;99.90;;;;;;6196402;23;20666;-92
2022/03/26 11:57:16;;;;;;;3.17;1.80;;;8.60;99.90;;;;;;6195337;23;20573;-91
2022/03/26 11:59:49;;;;;;;2.87;1.80;;;8.60;99.90;;;;;;6196487;23;20173;-91
2022/03/26 12:02:25;;;;;;;3.53;2.00;;;8.50;99.90;;;;;;6192823;23;20185;-91
2022/03/26 12:04:59;;;;;;;4.70;2.27;;;8.40;99.90;;;;;;6193402;23;20176;-91
2022/03/26 12:07:32;;;;;;;3.83;1.90;;;8.40;99.90;;;;;;6192090;23;20201;-90
2022/03/26 12:13:03;;;;;;;4.77;2.30;;;8.40;99.90;;;;;;6190913;23;20208;-91
2022/03/26 12:15:37;;;;;;;3.97;2.30;;;8.40;99.90;;;;;;6192879;23;20255;-90
2022/03/26 12:18:15;;;;;;;2.33;1.97;;;8.50;99.90;;;;;;6190899;23;20177;-91
2022/03/26 12:20:48;;;;;;;3.53;2.27;;;8.50;99.90;;;;;;6167192;23;20181;-91
2022/03/26 12:23:28;;;;;;;3.73;2.00;;;8.60;99.90;;;;;;6192142;23;20176;-91
2022/03/26 12:26:05;;;;;;;4.90;2.60;;;8.70;99.90;;;;;;6194846;23;20290;-90
2022/03/26 12:28:38;;;;;;;5.00;2.20;;;8.80;99.90;;;;;;6191716;23;20195;-91
2022/03/26 12:31:17;;;;;;;4.93;2.27;;;8.80;99.90;;;;;;6195632;23;20177;-90
2022/03/26 12:33:59;;;;;;;3.67;2.20;;;8.80;99.90;;;;;;6193349;23;20176;-90
2022/03/26 12:36:37;;;;;;;3.93;1.93;;;8.80;99.90;;;;;;6168587;23;20235;-90
2022/03/26 12:39:12;;;;;;;3.90;1.63;;;8.80;99.90;;;;;;6193490;23;20193;-90
2022/03/26 12:41:50;;;;;;;3.83;2.13;;;8.80;99.90;;;;;;6197273;23;20168;-91
2022/03/26 12:44:22;;;;;;;4.57;1.87;;;8.80;99.90;;;;;;6208163;23;20189;-90
2022/03/26 12:46:58;;;;;;;3.63;2.10;;;8.80;99.90;;;;;;6209367;23;20200;-91
2022/03/26 12:49:36;;;;;;;5.17;1.80;;;8.80;99.90;;;;;;6206063;23;20244;-92
2022/03/26 12:52:08;;;;;;;2.97;1.50;;;8.80;99.90;;;;;;6193947;23;20232;-91
2022/03/26 12:54:41;;;;;;;2.53;1.90;;;8.80;99.90;;;;;;6193985;23;20169;-91
2022/03/26 12:57:12;;;;;;;7.17;2.60;;;8.80;99.90;;;;;;6192385;23;20177;-92
2022/03/26 12:59:52;;;;;;;4.87;2.20;;;8.70;99.90;;;;;;6192659;23;20224;-91
2022/03/26 13:02:23;;;;;;;3.80;2.13;;;8.60;99.90;;;;;;6191570;23;20176;-91
2022/03/26 13:04:57;;;;;;;4.60;2.07;;;8.60;99.90;;;;;;6192922;23;20507;-90
2022/03/26 13:07:28;;;;;;;4.87;2.13;;;8.60;99.90;;;;;;6197986;23;20192;-91
2022/03/26 13:10:00;;;;;;;4.43;2.20;;;8.70;99.90;;;;;;6206352;23;20172;-91
2022/03/26 13:12:33;;;;;;;5.17;1.97;;;8.70;99.90;;;;;;6205900;23;20482;-91
2022/03/26 13:18:25;;;;;;;4.07;2.40;;;8.60;99.90;;;;;;6193173;23;20176;-91
2022/03/26 13:21:07;;;;;;;2.77;1.80;;;8.70;99.90;;;;;;6191962;23;20518;-91
2022/03/26 13:23:39;;;;;;;4.70;2.20;;;8.60;99.90;;;;;;6190609;23;20222;-91
2022/03/26 13:26:12;;;;;;;4.63;2.77;;;8.60;99.90;;;;;;6191678;23;20196;-91
2022/03/26 13:28:44;;;;;;;7.27;3.30;;;8.60;99.90;;;;;;6189911;23;20201;-92
2022/03/26 13:31:24;;;;;;;4.00;2.37;;;8.70;99.90;;;;;;6190888;23;20177;-93
2022/03/26 13:33:56;;;;;;;4.70;2.17;;;8.70;99.90;;;;;;6191181;23;20283;-90
2022/03/26 13:36:33;;;;;;;3.47;2.10;;;8.70;99.90;;;;;;6190422;23;20177;-90
2022/03/26 13:39:17;;;;;;;6.43;3.10;;;8.60;99.90;;;;;;6190033;23;20196;-91
2022/03/26 13:41:49;;;;;;;4.87;2.63;;;8.60;99.90;;;;;;6190665;23;20181;-91
2022/03/26 13:44:22;;;;;;;6.27;2.33;;;8.60;99.90;;;;;;6194474;23;20166;-91
2022/03/26 13:46:54;;;;;;;3.33;2.33;;;8.70;99.90;;;;;;6190776;23;20209;-92
2022/03/26 13:49:30;;;;;;;2.73;2.27;;;8.70;99.90;;;;;;6192278;23;20208;-91
2022/03/26 13:52:24;;;;;;;4.40;2.13;;;8.60;99.90;;;;;;6189697;23;20634;-92
2022/03/26 13:54:56;;;;;;;3.60;2.27;;;8.60;99.90;;;;;;6190293;23;20177;-91
2022/03/26 13:57:35;;;;;;;4.33;2.30;;;8.60;99.90;;;;;;6189391;23;20184;-90
2022/03/26 14:00:11;;;;;;;3.47;2.20;;;8.60;99.90;;;;;;6168041;23;20181;-91
2022/03/26 14:02:44;;;;;;;4.00;2.13;;;8.50;99.90;;;;;;6170273;23;20183;-90
2022/03/26 14:05:26;;;;;;;4.83;2.03;;;8.50;99.90;;;;;;6190301;23;20173;-89
2022/03/26 14:08:00;;;;;;;2.93;1.97;;;8.50;99.90;;;;;;6192795;23;20578;-91
2022/03/26 14:10:33;;;;;;;3.60;2.10;;;8.50;99.90;;;;;;6191037;23;20180;-90
2022/03/26 14:13:07;;;;;;;6.03;2.53;;;8.60;99.90;;;;;;6191562;23;20177;-91
2022/03/26 14:15:40;;;;;;;2.43;2.00;;;8.50;99.90;;;;;;6192750;23;20549;-91
2022/03/26 14:18:12;;;;;;;4.40;2.40;;;8.50;99.90;;;;;;6200584;23;20189;-91
2022/03/26 14:20:43;;;;;;;3.27;2.20;;;8.50;99.90;;;;;;6207737;23;20161;-91
2022/03/26 14:23:19;;;;;;;3.07;1.80;;;8.50;99.90;;;;;;6183212;23;20169;-91
2022/03/26 14:25:51;;;;;;;4.17;2.20;;;8.50;99.90;;;;;;6174789;23;20173;-91
2022/03/26 14:28:22;;;;;;;3.37;2.27;;;8.50;99.90;;;;;;6166555;23;20201;-90
2022/03/26 14:30:54;;;;;;;5.60;2.30;;;8.60;99.90;;;;;;6191498;23;20173;-91
2022/03/26 14:33:26;;;;;;;5.33;1.80;;;8.50;99.90;;;;;;6193482;23;20182;-91
2022/03/26 14:35:57;;;;;;;2.80;1.63;;;8.60;99.90;;;;;;6194404;23;20172;-91
2022/03/26 14:38:30;;;;;;;2.40;1.80;;;8.60;99.90;;;;;;6193261;23;20199;-91
2022/03/26 14:41:02;;;;;;;2.10;1.50;;;8.70;99.90;;;;;;6192405;23;20248;-92
2022/03/26 14:43:33;;;;;;;2.83;1.70;;;8.70;99.90;;;;;;6193098;23;20166;-91
2022/03/26 14:46:05;;;;;;;2.97;1.90;;;8.80;99.90;;;;;;6194174;23;20185;-91
2022/03/26 14:48:37;;;;;;;6.23;2.20;;;8.80;99.90;;;;;;6192287;23;20694;-91
2022/03/26 14:51:08;;;;;;;3.30;1.60;;;8.90;99.90;;;;;;6191944;23;20538;-93
2022/03/26 14:53:42;;;;;;;2.43;1.90;;;9.00;99.90;;;;;;6192458;23;20197;-91
2022/03/26 14:56:14;;;;;;;4.40;2.03;;;9.00;99.90;;;;;;6142357;23;20204;-91
2022/03/26 14:58:45;;;;;;;2.80;1.60;;;9.00;99.90;;;;;;6197523;23;20279;-91
2022/03/26 15:01:17;;;;;;;3.40;1.50;;;9.10;99.90;;;;;;6196716;23;20204;-91
2022/03/26 15:03:49;;;;;;;2.27;1.60;;;9.10;99.90;;;;;;6166700;23;20611;-92
2022/03/26 15:06:20;;;;;;;2.43;1.63;;;9.10;99.90;;;;;;6193099;23;20247;-92
2022/03/26 15:08:54;;;;;;;3.57;1.40;;;9.20;99.90;;;;;;6191922;23;20504;-92
2022/03/26 15:11:25;;;;;;;4.13;1.80;;;9.30;99.90;;;;;;6166897;23;20176;-92
2022/03/26 15:13:57;;;;;;;2.67;1.63;;;9.40;99.90;;;;;;6166087;23;20192;-91
2022/03/26 15:16:28;;;;;;;4.40;1.90;;;9.50;99.90;;;;;;6166606;23;20180;-89
2022/03/26 15:18:59;;;;;;;3.27;1.80;;;9.60;99.90;;;;;;6196635;23;20237;-92
2022/03/26 15:21:31;;;;;;;2.13;1.60;;;9.60;99.90;;;;;;6192223;23;20227;-91
2022/03/26 15:24:04;;;;;;;6.43;1.67;;;9.60;99.90;;;;;;6201814;23;20188;-91
2022/03/26 15:26:38;;;;;;;2.97;1.67;;;9.70;99.90;;;;;;6207169;23;20177;-90
2022/03/26 15:29:10;;;;;;;2.27;1.33;;;9.70;99.90;;;;;;6204275;23;20280;-90
2022/03/26 15:31:42;;;;;;;5.60;1.97;;;9.70;99.90;;;;;;6193331;23;20177;-91
2022/03/26 15:34:13;;;;;;;2.03;1.40;;;9.80;99.90;;;;;;6193596;23;20177;-91
2022/03/26 15:36:47;;;;;;;2.60;1.43;;;9.90;99.90;;;;;;6194192;23;20605;-91
2022/03/26 15:39:22;;;;;;;1.50;1.30;;;9.90;99.90;;;;;;6200957;23;20647;-91
2022/03/26 15:41:54;;;;;;;2.57;1.53;;;9.90;99.90;;;;;;6192366;23;20271;-91
2022/03/26 15:44:26;;;;;;;1.87;1.40;;;10.00;99.90;;;;;;6196863;22;20215;-92
2022/03/26 15:46:58;;;;;;;1.97;1.40;;;10.00;99.90;;;;;;6192448;23;20563;-92
2022/03/26 15:49:32;;;;;;;5.53;1.57;;;10.00;99.90;;;;;;6192378;23;20180;-91
2022/03/26 15:52:05;;;;;;;5.17;1.80;;;10.10;99.90;;;;;;6191534;23;20248;-92
2022/03/26 15:55:00;;;;;;;4.30;2.10;;;10.00;99.90;;;;;;6197822;23;20203;-92
2022/03/26 15:57:32;;;;;;;3.07;2.03;;;10.00;99.90;;;;;;6192194;23;20177;-92
2022/03/26 16:00:08;;;;;;;5.00;2.60;;;10.00;99.90;;;;;;6169777;23;20176;-92
2022/03/26 16:02:43;;;;;;;4.20;2.27;;;10.00;99.90;;;;;;6191115;23;20569;-92
2022/03/26 16:05:16;;;;;;;6.27;2.00;;;10.00;99.90;;;;;;6176941;23;20188;-92
2022/03/26 16:07:50;;;;;;;4.77;2.17;;;9.90;99.90;;;;;;6178074;23;20200;-92
2022/03/26 16:10:32;;;;;;;6.03;2.30;;;9.90;99.90;;;;;;6201544;23;20176;-90
2022/03/26 16:13:12;;;;;;;2.57;2.03;;;10.10;99.90;;;;;;6181368;23;20177;-92
2022/03/26 16:16:05;;;;;;;4.83;2.43;;;10.10;99.90;;;;;;6204507;23;20177;-92
2022/03/26 16:35:12;;;;;;;4.10;2.20;;;10.50;99.90;;;;;;6199906;22;3820728;-91
2022/03/26 16:37:51;;;;;;;5.47;1.90;;;10.60;99.90;;;;;;6312038;22;20169;-91
2022/03/26 16:40:32;;;;;;;2.90;1.80;;;10.70;99.90;;;;;;6334575;22;20162;-92
2022/03/26 16:43:09;;;;;;;3.77;1.60;;;10.80;99.90;;;;;;6334553;22;20205;-92
2022/03/26 16:45:45;;;;;;;1.90;1.70;;;10.80;99.90;;;;;;6310044;22;20221;-91
2022/03/26 16:48:27;;;;;;;4.30;2.20;;;10.80;99.90;;;;;;6334312;22;20170;-90
2022/03/26 16:51:04;;;;;;;6.67;2.50;;;10.40;99.90;;;;;;6332848;22;20174;-91
2022/03/26 16:53:40;;;;;;;3.93;2.10;;;10.50;99.90;;;;;;6343193;22;20161;-93
2022/03/26 16:56:11;;;;;;;3.83;1.73;;;10.70;99.90;;;;;;6342239;22;20184;-93
2022/03/26 16:58:45;;;;;;;1.77;1.63;;;10.80;99.90;;;;;;6342936;22;20192;-92
2022/03/26 17:01:17;;;;;;;4.03;1.87;;;10.90;99.90;;;;;;6341507;22;20192;-91
2022/03/26 17:03:48;;;;;;;3.67;1.90;;;11.20;99.90;;;;;;6327540;22;20202;-91
2022/03/26 17:06:31;;;;;;;2.90;1.83;;;11.40;99.90;;;;;;6290696;22;20221;-91
2022/03/26 17:09:03;;;;;;;4.33;2.20;;;11.50;99.90;;;;;;6325821;22;20166;-91
2022/03/26 17:14:21;;;;;;;3.70;1.77;;;11.60;99.90;;;;;;6329883;22;20276;-92
2022/03/26 17:16:55;;;;;;;2.23;1.53;;;11.70;99.90;;;;;;6336052;22;20170;-91
2022/03/26 17:22:24;;;;;;;3.80;1.53;;;12.00;99.90;;;;;;6332997;22;20168;-92
2022/03/26 17:24:57;;;;;;;3.23;2.00;;;12.20;99.90;;;;;;6333010;22;20177;-92